createdAt,value
2023-11-09T00:00:11.339Z,19.20
2023-11-09T00:02:59.216Z,16.00
2023-11-09T00:05:27.173Z,18.10
2023-11-09T00:07:55.084Z,21.70
2023-11-09T00:10:22.926Z,18.40
2023-11-09T00:12:52.398Z,18.30
2023-11-09T00:15:26.076Z,16.40
2023-11-09T00:17:55.095Z,18.20
2023-11-09T00:20:23.208Z,18.10
2023-11-09T00:22:52.584Z,16.40
2023-11-09T00:25:20.569Z,14.90
2023-11-09T00:27:48.371Z,14.70
2023-11-09T00:30:16.243Z,14.80
2023-11-09T00:32:44.076Z,14.60
2023-11-09T00:35:13.425Z,17.30
2023-11-09T00:37:42.164Z,18.80
2023-11-09T00:40:12.059Z,17.00
2023-11-09T00:42:40.383Z,14.40
2023-11-09T00:45:09.212Z,16.70
2023-11-09T00:47:37.140Z,20.40
2023-11-09T00:50:06.368Z,14.90
2023-11-09T00:52:34.124Z,16.90
2023-11-09T00:55:02.284Z,23.70
2023-11-09T00:57:33.101Z,17.50
2023-11-09T01:00:00.966Z,15.70
2023-11-09T01:02:35.534Z,16.20
2023-11-09T01:05:03.679Z,14.60
2023-11-09T01:07:31.537Z,14.30
2023-11-09T01:10:00.215Z,16.00
2023-11-09T01:12:28.585Z,13.40
2023-11-09T01:14:56.409Z,16.90
2023-11-09T01:17:24.147Z,16.10
2023-11-09T01:19:52.195Z,13.60
2023-11-09T01:22:21.096Z,16.10
2023-11-09T01:24:48.844Z,15.10
2023-11-09T01:27:16.641Z,14.90
2023-11-09T01:29:44.420Z,11.70
2023-11-09T01:32:12.548Z,12.40
2023-11-09T01:34:40.466Z,11.90
2023-11-09T01:37:12.086Z,11.70
2023-11-09T01:39:41.083Z,16.60
2023-11-09T01:42:11.475Z,13.90
2023-11-09T01:44:39.318Z,18.30
2023-11-09T01:47:08.404Z,11.80
2023-11-09T01:49:37.244Z,21.40
2023-11-09T01:52:06.010Z,14.70
2023-11-09T01:54:35.393Z,16.60
2023-11-09T01:57:04.549Z,12.70
2023-11-09T01:59:33.856Z,11.90
2023-11-09T02:02:02.972Z,14.00
2023-11-09T02:04:30.906Z,14.20
2023-11-09T02:06:59.019Z,12.50
2023-11-09T02:09:28.548Z,12.10
2023-11-09T02:11:56.366Z,12.30
2023-11-09T02:14:24.481Z,10.30
2023-11-09T02:16:52.307Z,13.40
2023-11-09T02:19:20.827Z,16.30
2023-11-09T02:21:53.569Z,14.40
2023-11-09T02:26:49.833Z,17.50
2023-11-09T02:29:21.424Z,18.80
2023-11-09T02:31:49.225Z,18.50
2023-11-09T02:34:21.998Z,14.30
2023-11-09T02:36:50.586Z,13.50
2023-11-09T02:39:18.477Z,16.90
2023-11-09T02:41:46.798Z,13.30
2023-11-09T02:44:14.620Z,13.60
2023-11-09T02:46:42.416Z,13.60
2023-11-09T02:49:10.576Z,11.30
2023-11-09T02:51:38.537Z,12.70
2023-11-09T02:54:06.536Z,12.70
2023-11-09T02:56:34.626Z,10.90
2023-11-09T02:59:03.538Z,14.20
2023-11-09T03:01:32.273Z,11.30
2023-11-09T03:04:00.117Z,13.10
2023-11-09T03:06:28.332Z,12.70
2023-11-09T03:08:56.223Z,11.00
2023-11-09T03:11:24.194Z,15.10
2023-11-09T03:13:52.076Z,17.10
2023-11-09T03:16:22.849Z,14.30
2023-11-09T03:18:50.859Z,17.40
2023-11-09T03:21:18.585Z,15.40
2023-11-09T03:23:48.628Z,15.20
2023-11-09T03:26:16.716Z,22.00
2023-11-09T03:28:44.495Z,16.60
2023-11-09T03:31:13.272Z,14.30
2023-11-09T03:33:41.062Z,15.00
2023-11-09T03:36:08.995Z,16.40
2023-11-09T03:38:36.815Z,13.20
2023-11-09T03:41:04.893Z,13.50
2023-11-09T03:43:32.731Z,16.90
2023-11-09T03:46:01.108Z,14.90
2023-11-09T03:48:29.137Z,15.70
2023-11-09T03:50:56.907Z,12.60
2023-11-09T03:53:24.698Z,12.60
2023-11-09T03:55:52.579Z,15.10
2023-11-09T03:58:20.408Z,14.90
2023-11-09T04:00:49.050Z,17.40
2023-11-09T04:03:16.833Z,13.70
2023-11-09T04:05:44.711Z,17.10
2023-11-09T04:08:12.743Z,13.20
2023-11-09T04:10:41.135Z,13.60
2023-11-09T04:13:09.493Z,13.50
2023-11-09T04:15:37.734Z,17.50
2023-11-09T04:18:05.704Z,12.50
2023-11-09T04:20:33.566Z,13.60
2023-11-09T04:23:01.792Z,16.30
2023-11-09T04:25:30.763Z,16.10
2023-11-09T04:27:58.740Z,19.30
2023-11-09T04:30:29.698Z,15.10
2023-11-09T04:32:59.294Z,15.30
2023-11-09T04:35:27.405Z,16.40
2023-11-09T04:37:55.998Z,14.70
2023-11-09T04:40:26.618Z,16.40
2023-11-09T04:42:58.038Z,12.70
2023-11-09T04:45:27.192Z,15.30
2023-11-09T04:47:59.909Z,14.80
2023-11-09T04:50:32.480Z,13.50
2023-11-09T04:53:20.823Z,14.00
2023-11-09T04:55:55.109Z,18.00
2023-11-09T04:58:41.513Z,13.40
2023-11-09T05:01:27.625Z,17.90
2023-11-09T05:04:13.675Z,16.50
2023-11-09T05:06:50.317Z,14.40
2023-11-09T05:09:21.153Z,15.80
2023-11-09T05:11:49.262Z,15.90
2023-11-09T05:14:18.215Z,18.10
2023-11-09T05:16:46.078Z,15.60
2023-11-09T05:19:14.210Z,15.00
2023-11-09T05:21:42.346Z,16.50
2023-11-09T05:24:10.170Z,16.20
2023-11-09T05:26:38.107Z,16.10
2023-11-09T05:29:06.592Z,15.70
2023-11-09T05:31:38.251Z,18.60
2023-11-09T05:34:06.241Z,16.40
2023-11-09T05:36:35.757Z,16.10
2023-11-09T05:39:07.309Z,19.30
2023-11-09T05:41:36.130Z,16.70
2023-11-09T05:44:04.485Z,18.60
2023-11-09T05:46:32.325Z,21.90
2023-11-09T05:49:00.457Z,15.40
2023-11-09T05:51:29.648Z,20.70
2023-11-09T05:53:58.664Z,18.90
2023-11-09T05:56:29.077Z,16.00
2023-11-09T05:58:57.323Z,18.80
2023-11-09T06:01:26.063Z,19.80
2023-11-09T06:03:55.352Z,18.60
2023-11-09T06:06:23.138Z,15.50
2023-11-09T06:08:51.066Z,18.00
2023-11-09T06:11:18.876Z,25.30
2023-11-09T06:13:46.735Z,25.90
2023-11-09T06:16:15.479Z,16.80
2023-11-09T06:18:44.128Z,20.00
2023-11-09T06:21:11.958Z,23.40
2023-11-09T06:23:39.903Z,15.30
2023-11-09T06:26:07.691Z,16.20
2023-11-09T06:28:35.595Z,15.40
2023-11-09T06:31:05.598Z,14.80
2023-11-09T06:33:34.728Z,15.40
2023-11-09T06:36:02.911Z,12.10
2023-11-09T06:38:31.587Z,20.40
2023-11-09T06:40:59.381Z,12.90
2023-11-09T06:43:27.245Z,14.00
2023-11-09T06:45:57.408Z,12.50
2023-11-09T06:48:26.187Z,13.50
2023-11-09T06:50:55.311Z,13.00
2023-11-09T06:53:23.508Z,12.30
2023-11-09T06:55:52.595Z,13.70
2023-11-09T06:58:20.560Z,11.40
2023-11-09T07:00:48.469Z,17.90
2023-11-09T07:03:19.279Z,19.80
2023-11-09T07:05:47.368Z,13.80
2023-11-09T07:08:15.308Z,14.20
2023-11-09T07:10:45.125Z,15.10
2023-11-09T07:13:13.266Z,10.30
2023-11-09T07:15:41.565Z,10.70
2023-11-09T07:18:11.563Z,11.70
2023-11-09T07:20:39.456Z,13.00
2023-11-09T07:23:10.678Z,12.30
2023-11-09T07:25:38.859Z,16.50
2023-11-09T07:28:08.672Z,16.80
2023-11-09T07:30:36.994Z,15.80
2023-11-09T07:33:06.200Z,14.50
2023-11-09T07:35:35.895Z,11.80
2023-11-09T07:38:03.827Z,10.60
2023-11-09T07:40:31.850Z,9.60
2023-11-09T07:43:00.297Z,12.90
2023-11-09T07:45:28.438Z,10.30
2023-11-09T07:47:56.532Z,11.00
2023-11-09T07:50:25.131Z,10.40
2023-11-09T07:52:54.108Z,13.70
2023-11-09T07:55:22.014Z,10.20
2023-11-09T07:57:52.682Z,10.70
2023-11-09T08:00:21.379Z,13.90
2023-11-09T08:02:49.229Z,10.10
2023-11-09T08:05:17.524Z,11.80
2023-11-09T08:07:45.893Z,11.10
2023-11-09T08:10:14.038Z,13.00
2023-11-09T08:12:42.735Z,11.80
2023-11-09T08:15:15.199Z,10.80
2023-11-09T08:17:44.154Z,8.40
2023-11-09T08:20:16.946Z,10.20
2023-11-09T08:22:47.157Z,8.40
2023-11-09T08:25:17.145Z,9.30
2023-11-09T08:27:46.025Z,12.10
2023-11-09T08:30:17.031Z,9.70
2023-11-09T08:32:48.784Z,10.00
2023-11-09T08:35:17.391Z,9.30
2023-11-09T08:37:45.556Z,11.20
2023-11-09T08:40:28.933Z,9.20
2023-11-09T08:43:00.944Z,15.60
2023-11-09T08:45:30.749Z,11.30
2023-11-09T08:48:00.263Z,10.30
2023-11-09T08:50:28.430Z,10.10
2023-11-09T08:52:56.321Z,9.30
2023-11-09T08:55:24.608Z,10.90
2023-11-09T08:57:53.423Z,10.80
2023-11-09T09:00:24.874Z,10.20
2023-11-09T09:02:53.508Z,10.30
2023-11-09T09:05:25.341Z,8.80
2023-11-09T09:07:58.840Z,11.40
2023-11-09T09:10:29.448Z,11.10
2023-11-09T09:13:03.657Z,8.80
2023-11-09T09:15:31.595Z,8.80
2023-11-09T09:17:59.961Z,8.80
2023-11-09T09:20:29.373Z,9.20
2023-11-09T09:23:00.817Z,7.30
2023-11-09T09:25:28.750Z,6.50
2023-11-09T09:27:56.901Z,7.20
2023-11-09T09:30:26.632Z,11.50
2023-11-09T09:32:56.912Z,7.10
2023-11-09T09:35:26.486Z,5.70
2023-11-09T09:38:04.238Z,5.60
2023-11-09T09:40:40.884Z,9.60
2023-11-09T09:43:16.545Z,8.30
2023-11-09T09:45:48.551Z,6.80
2023-11-09T09:48:17.437Z,9.10
2023-11-09T09:50:47.513Z,8.10
2023-11-09T09:53:21.622Z,5.50
2023-11-09T09:55:50.781Z,6.60
2023-11-09T09:58:21.300Z,8.20
2023-11-09T10:00:56.381Z,6.80
2023-11-09T10:03:26.927Z,7.60
2023-11-09T10:05:55.466Z,7.10
2023-11-09T10:08:25.191Z,14.80
2023-11-09T10:10:55.649Z,19.90
2023-11-09T10:13:26.447Z,7.60
2023-11-09T10:15:59.652Z,5.80
2023-11-09T10:18:29.673Z,7.40
2023-11-09T10:20:59.607Z,8.80
2023-11-09T10:23:27.629Z,7.50
2023-11-09T10:26:00.598Z,5.20
2023-11-09T10:28:33.548Z,6.60
2023-11-09T10:31:02.226Z,9.40
2023-11-09T10:33:31.474Z,13.20
2023-11-09T10:36:02.625Z,17.80
2023-11-09T10:38:37.316Z,18.90
2023-11-09T10:41:16.357Z,20.00
2023-11-09T10:44:02.983Z,20.60
2023-11-09T10:46:34.923Z,9.90
2023-11-09T10:49:05.229Z,11.20
2023-11-09T10:51:35.673Z,6.40
2023-11-09T10:54:04.433Z,5.00
2023-11-09T10:56:32.618Z,7.40
2023-11-09T10:59:01.802Z,5.70
2023-11-09T11:01:31.989Z,6.10
2023-11-09T11:04:01.866Z,7.60
2023-11-09T11:06:35.212Z,8.60
2023-11-09T11:09:09.670Z,8.30
2023-11-09T11:11:39.802Z,4.90
2023-11-09T11:14:14.169Z,4.80
2023-11-09T11:17:03.010Z,9.50
2023-11-09T11:20:03.700Z,6.90
2023-11-09T11:23:04.732Z,6.30
2023-11-09T11:25:40.102Z,4.70
2023-11-09T11:28:12.345Z,5.20
2023-11-09T11:30:41.292Z,6.00
2023-11-09T11:33:20.303Z,5.20
2023-11-09T11:35:53.628Z,3.50
2023-11-09T11:38:23.360Z,4.90
2023-11-09T11:41:13.678Z,6.80
2023-11-09T11:43:43.214Z,8.00
2023-11-09T11:46:18.789Z,3.90
2023-11-09T11:48:52.269Z,5.30
2023-11-09T11:51:28.819Z,4.90
2023-11-09T11:54:11.024Z,4.70
2023-11-09T11:56:39.796Z,7.80
2023-11-09T11:59:12.889Z,6.10
2023-11-09T12:01:41.760Z,5.40
2023-11-09T12:04:15.314Z,6.50
2023-11-09T12:06:45.800Z,8.90
2023-11-09T12:09:16.623Z,4.30
2023-11-09T12:11:51.117Z,6.00
2023-11-09T12:14:21.126Z,6.70
2023-11-09T12:16:50.023Z,8.50
2023-11-09T12:19:19.537Z,10.10
2023-11-09T12:21:48.154Z,6.90
2023-11-09T12:24:24.397Z,5.60
2023-11-09T12:27:08.687Z,6.50
2023-11-09T12:29:39.214Z,7.00
2023-11-09T12:32:08.709Z,7.90
2023-11-09T12:34:42.436Z,6.50
2023-11-09T12:37:16.193Z,6.10
2023-11-09T12:39:45.406Z,8.30
2023-11-09T12:42:20.532Z,7.60
2023-11-09T12:44:48.586Z,4.80
2023-11-09T12:47:19.082Z,6.70
2023-11-09T12:49:55.488Z,9.00
2023-11-09T12:52:27.709Z,6.10
2023-11-09T12:54:57.375Z,5.60
2023-11-09T12:57:26.323Z,7.10
2023-11-09T12:59:57.458Z,6.90
2023-11-09T13:02:43.579Z,7.10
2023-11-09T13:05:14.630Z,6.90
2023-11-09T13:07:47.844Z,6.80
2023-11-09T13:10:24.311Z,8.70
2023-11-09T13:12:56.890Z,4.60
2023-11-09T13:15:38.296Z,6.70
2023-11-09T13:18:09.937Z,5.80
2023-11-09T13:20:38.993Z,11.10
2023-11-09T13:23:12.031Z,8.10
2023-11-09T13:25:53.031Z,13.70
2023-11-09T13:28:24.580Z,17.20
2023-11-09T13:30:54.209Z,13.50
2023-11-09T13:33:35.549Z,10.30
2023-11-09T13:36:17.231Z,9.70
2023-11-09T13:39:11.729Z,6.50
2023-11-09T13:41:43.757Z,10.40
2023-11-09T13:44:13.801Z,7.90
2023-11-09T13:46:44.674Z,9.90
2023-11-09T13:49:29.252Z,9.20
2023-11-09T13:51:58.744Z,6.30
2023-11-09T13:54:40.347Z,7.50
2023-11-09T13:57:12.360Z,7.10
2023-11-09T13:59:45.079Z,6.70
2023-11-09T14:02:35.300Z,9.10
2023-11-09T14:05:11.811Z,7.00
2023-11-09T14:07:44.361Z,7.90
2023-11-09T14:10:16.134Z,8.70
2023-11-09T14:12:45.182Z,6.20
2023-11-09T14:15:26.844Z,9.10
2023-11-09T14:18:04.208Z,5.80
2023-11-09T14:20:33.963Z,9.70
2023-11-09T14:23:07.832Z,9.20
2023-11-09T14:25:40.156Z,9.40
2023-11-09T14:28:09.255Z,6.70
2023-11-09T14:30:39.903Z,8.40
2023-11-09T14:33:09.139Z,7.60
2023-11-09T14:35:43.763Z,7.90
2023-11-09T14:38:13.033Z,7.10
2023-11-09T14:40:48.585Z,11.50
2023-11-09T14:43:18.458Z,14.80
2023-11-09T14:45:47.997Z,9.20
2023-11-09T14:48:18.664Z,9.20
2023-11-09T14:50:47.082Z,9.30
2023-11-09T14:53:30.124Z,10.10
2023-11-09T14:56:02.649Z,8.70
2023-11-09T14:58:35.340Z,8.30
2023-11-09T15:01:05.836Z,9.10
2023-11-09T15:03:36.001Z,8.50
2023-11-09T15:06:13.085Z,6.70
2023-11-09T15:08:41.833Z,7.90
2023-11-09T15:11:15.804Z,11.00
2023-11-09T15:13:48.156Z,7.20
2023-11-09T15:16:20.932Z,8.70
2023-11-09T15:18:50.385Z,9.90
2023-11-09T15:21:22.511Z,12.00
2023-11-09T15:23:50.852Z,8.60
2023-11-09T15:26:19.822Z,8.00
2023-11-09T15:28:49.460Z,8.90
2023-11-09T15:31:18.928Z,12.80
2023-11-09T15:33:46.875Z,9.40
2023-11-09T15:36:14.736Z,11.80
2023-11-09T15:38:43.002Z,19.30
2023-11-09T15:41:19.935Z,24.00
2023-11-09T15:43:55.252Z,18.30
2023-11-09T15:46:24.605Z,16.50
2023-11-09T15:48:54.980Z,17.20
2023-11-09T15:51:35.446Z,19.90
2023-11-09T15:54:03.778Z,28.50
2023-11-09T15:56:32.457Z,26.90
2023-11-09T15:59:01.195Z,34.50
2023-11-09T16:01:29.168Z,35.60
2023-11-09T16:03:57.937Z,31.20
2023-11-09T16:06:25.820Z,24.90
2023-11-09T16:08:53.821Z,19.80
2023-11-09T16:11:22.323Z,19.90
2023-11-09T16:13:51.310Z,26.10
2023-11-09T16:16:19.576Z,30.80
2023-11-09T16:18:48.149Z,32.60
2023-11-09T16:21:16.143Z,18.80
2023-11-09T16:23:46.801Z,21.10
2023-11-09T16:26:16.848Z,19.50
2023-11-09T16:28:49.675Z,20.70
2023-11-09T16:31:18.636Z,35.90
2023-11-09T16:33:47.279Z,35.80
2023-11-09T16:36:17.095Z,24.80
2023-11-09T16:38:49.442Z,24.90
2023-11-09T16:41:23.703Z,17.40
2023-11-09T16:43:51.534Z,17.20
2023-11-09T16:46:19.364Z,20.00
2023-11-09T16:48:47.208Z,19.40
2023-11-09T16:51:15.226Z,18.50
2023-11-09T16:53:45.056Z,21.00
2023-11-09T16:56:13.319Z,18.30
2023-11-09T16:58:41.829Z,24.00
2023-11-09T17:01:10.086Z,23.20
2023-11-09T17:03:38.907Z,24.10
2023-11-09T17:06:07.842Z,19.80
2023-11-09T17:08:38.021Z,21.50
2023-11-09T17:11:09.404Z,22.70
2023-11-09T17:13:39.254Z,28.70
2023-11-09T17:16:07.861Z,19.60
2023-11-09T17:18:35.918Z,19.10
2023-11-09T17:21:05.720Z,22.20
2023-11-09T17:23:33.686Z,22.40
2023-11-09T17:26:01.550Z,21.40
2023-11-09T17:28:32.410Z,25.10
2023-11-09T17:31:00.438Z,25.90
2023-11-09T17:33:28.341Z,19.80
2023-11-09T17:35:57.064Z,25.60
2023-11-09T17:38:26.859Z,21.50
2023-11-09T17:40:54.859Z,27.90
2023-11-09T17:43:22.953Z,33.30
2023-11-09T17:45:51.375Z,35.60
2023-11-09T17:48:20.257Z,54.40
2023-11-09T17:50:48.141Z,65.20
2023-11-09T17:53:20.649Z,49.60
2023-11-09T17:55:48.698Z,34.60
2023-11-09T17:58:17.857Z,32.30
2023-11-09T18:00:46.189Z,29.80
2023-11-09T18:03:16.667Z,23.90
2023-11-09T18:08:16.893Z,21.30
2023-11-09T18:10:44.878Z,20.50
2023-11-09T18:13:13.026Z,19.50
2023-11-09T18:15:42.518Z,18.60
2023-11-09T18:18:11.630Z,17.40
2023-11-09T18:20:43.414Z,21.90
2023-11-09T18:23:11.380Z,23.70
2023-11-09T18:25:39.413Z,21.00
2023-11-09T18:28:08.362Z,20.20
2023-11-09T18:30:36.625Z,17.20
2023-11-09T18:33:05.702Z,19.00
2023-11-09T18:35:33.837Z,18.10
2023-11-09T18:38:01.810Z,15.30
2023-11-09T18:40:29.786Z,14.30
2023-11-09T18:42:57.938Z,19.90
2023-11-09T18:45:25.995Z,17.10
2023-11-09T18:47:54.130Z,16.40
2023-11-09T18:52:53.801Z,15.50
2023-11-09T18:55:21.725Z,12.80
2023-11-09T18:57:49.835Z,17.20
2023-11-09T19:00:18.236Z,12.50
2023-11-09T19:05:16.978Z,18.70
2023-11-09T19:07:45.038Z,13.80
2023-11-09T19:10:13.090Z,15.60
2023-11-09T19:12:41.046Z,14.00
2023-11-09T19:15:11.902Z,14.00
2023-11-09T19:17:41.025Z,14.70
2023-11-09T19:20:10.722Z,18.40
2023-11-09T19:22:41.915Z,14.30
2023-11-09T19:25:11.172Z,14.00
2023-11-09T19:27:39.423Z,14.90
2023-11-09T19:30:10.930Z,15.10
2023-11-09T19:32:38.968Z,16.50
2023-11-09T19:35:07.243Z,15.80
2023-11-09T19:37:35.182Z,16.30
2023-11-09T19:40:03.821Z,18.10
2023-11-09T19:42:32.493Z,21.20
2023-11-09T19:45:00.886Z,19.50
2023-11-09T19:47:29.284Z,20.60
2023-11-09T19:49:57.401Z,22.50
2023-11-09T19:52:25.464Z,16.40
2023-11-09T19:54:53.378Z,21.90
2023-11-09T19:57:21.336Z,20.50
2023-11-09T19:59:49.263Z,17.60
2023-11-09T20:02:18.721Z,20.40
2023-11-09T20:04:47.036Z,18.60
2023-11-09T20:07:15.766Z,19.10
2023-11-09T20:09:43.726Z,19.40
2023-11-09T20:12:11.639Z,21.40
2023-11-09T20:14:40.502Z,19.20
2023-11-09T20:17:08.585Z,13.10
2023-11-09T20:19:36.454Z,18.00
2023-11-09T20:22:05.706Z,14.80
2023-11-09T20:24:33.772Z,15.10
2023-11-09T20:27:02.506Z,11.90
2023-11-09T20:29:30.891Z,16.70
2023-11-09T20:31:59.708Z,13.50
2023-11-09T20:34:28.882Z,15.20
2023-11-09T20:36:56.766Z,11.20
2023-11-09T20:39:24.792Z,14.40
2023-11-09T20:41:52.692Z,12.00
2023-11-09T20:44:21.031Z,15.80
2023-11-09T20:46:49.265Z,16.20
2023-11-09T20:49:17.043Z,15.90
2023-11-09T20:51:45.115Z,13.10
2023-11-09T20:54:13.058Z,15.10
2023-11-09T20:56:41.033Z,14.20
2023-11-09T20:59:10.704Z,18.70
2023-11-09T21:01:38.615Z,14.50
2023-11-09T21:04:08.081Z,13.90
2023-11-09T21:06:38.540Z,12.10
2023-11-09T21:09:06.524Z,13.50
2023-11-09T21:11:34.827Z,16.10
2023-11-09T21:14:02.673Z,16.10
2023-11-09T21:16:30.523Z,15.20
2023-11-09T21:19:01.659Z,14.90
2023-11-09T21:21:29.626Z,14.00
2023-11-09T21:23:58.618Z,14.70
2023-11-09T21:26:27.560Z,15.10
2023-11-09T21:28:55.605Z,16.70
2023-11-09T21:31:23.359Z,13.50
2023-11-09T21:33:54.622Z,13.40
2023-11-09T21:36:23.571Z,15.00
2023-11-09T21:38:51.379Z,11.90
2023-11-09T21:41:19.332Z,13.80
2023-11-09T21:43:48.167Z,12.60
2023-11-09T21:46:15.996Z,13.20
2023-11-09T21:48:44.090Z,12.80
2023-11-09T21:51:12.028Z,13.80
2023-11-09T21:53:39.897Z,11.80
2023-11-09T21:56:10.136Z,10.60
2023-11-09T21:58:38.020Z,13.80
2023-11-09T22:01:05.923Z,12.20
2023-11-09T22:03:35.204Z,11.50
2023-11-09T22:06:04.253Z,13.40
2023-11-09T22:08:32.207Z,13.20
2023-11-09T22:11:00.839Z,15.80
2023-11-09T22:13:28.868Z,13.00
2023-11-09T22:15:56.718Z,13.60
2023-11-09T22:18:24.611Z,10.30
2023-11-09T22:20:52.425Z,12.10
2023-11-09T22:23:20.374Z,13.90
2023-11-09T22:25:48.145Z,10.30
2023-11-09T22:28:16.021Z,13.30
2023-11-09T22:30:43.820Z,11.80
2023-11-09T22:33:12.984Z,10.80
2023-11-09T22:35:42.651Z,10.00
2023-11-09T22:38:10.661Z,11.00
2023-11-09T22:40:39.355Z,10.60
2023-11-09T22:43:07.994Z,10.20
2023-11-09T22:45:36.449Z,15.50
2023-11-09T22:48:04.666Z,14.40
2023-11-09T22:50:34.487Z,10.10
2023-11-09T22:53:02.300Z,10.00
2023-11-09T22:55:30.159Z,10.20
2023-11-09T22:57:57.944Z,12.00
2023-11-09T23:00:36.196Z,10.00
2023-11-09T23:03:05.548Z,9.30
2023-11-09T23:05:33.717Z,10.60
2023-11-09T23:08:01.558Z,10.20
2023-11-09T23:10:29.652Z,11.70
2023-11-09T23:12:57.444Z,10.00
2023-11-09T23:15:25.562Z,11.00
2023-11-09T23:17:53.424Z,10.40
2023-11-09T23:20:21.259Z,8.10
2023-11-09T23:22:49.088Z,10.00
2023-11-09T23:25:16.938Z,8.30
2023-11-09T23:27:44.860Z,8.40
2023-11-09T23:30:18.085Z,10.30
2023-11-09T23:32:46.359Z,9.80
2023-11-09T23:35:17.562Z,10.60
2023-11-09T23:37:47.936Z,11.10
2023-11-09T23:40:16.772Z,13.40
2023-11-09T23:42:46.321Z,9.00
2023-11-09T23:45:14.527Z,10.70
2023-11-09T23:47:42.539Z,8.60
2023-11-09T23:50:13.112Z,10.70
2023-11-09T23:52:41.555Z,11.20
2023-11-09T23:55:10.137Z,12.70
2023-11-09T23:57:37.984Z,8.50
